createdAt,value
2019-03-18T00:00:19.585Z,5.27
2019-03-18T00:02:48.101Z,3.57
2019-03-18T00:05:16.307Z,3.57
2019-03-18T00:07:44.495Z,6.47
2019-03-18T00:10:12.960Z,2.03
2019-03-18T00:12:41.138Z,2.33
2019-03-18T00:15:09.993Z,1.93
2019-03-18T00:17:38.546Z,5.03
2019-03-18T00:20:08.806Z,5.10
2019-03-18T00:22:37.551Z,4.77
2019-03-18T00:25:14.051Z,1.87
2019-03-18T00:27:42.314Z,10.93
2019-03-18T00:30:18.499Z,2.23
2019-03-18T00:32:46.726Z,4.20
2019-03-18T00:35:14.923Z,3.10
2019-03-18T00:37:43.205Z,3.67
2019-03-18T00:40:13.924Z,2.90
2019-03-18T00:42:43.697Z,2.47
2019-03-18T00:45:15.229Z,3.83
2019-03-18T00:47:42.090Z,2.17
2019-03-18T00:50:15.949Z,4.33
2019-03-18T00:52:45.998Z,4.47
2019-03-18T00:55:14.293Z,3.23
2019-03-18T00:57:42.549Z,5.60
2019-03-18T01:00:17.993Z,3.03
2019-03-18T01:02:49.328Z,7.13
2019-03-18T01:05:16.329Z,6.30
2019-03-18T01:07:44.502Z,4.00
2019-03-18T01:10:14.816Z,5.37
2019-03-18T01:12:45.987Z,2.93
2019-03-18T01:15:26.814Z,6.57
2019-03-18T01:17:44.271Z,5.30
2019-03-18T01:20:13.600Z,4.60
2019-03-18T01:22:41.792Z,4.83
2019-03-18T01:25:11.155Z,5.53
2019-03-18T01:27:39.548Z,4.43
2019-03-18T01:30:10.427Z,6.10
2019-03-18T01:32:44.812Z,7.87
2019-03-18T01:35:12.945Z,6.47
2019-03-18T01:37:41.116Z,5.50
2019-03-18T01:40:13.813Z,8.93
2019-03-18T01:42:42.515Z,8.37
2019-03-18T01:45:11.937Z,8.13
2019-03-18T01:47:41.848Z,5.37
2019-03-18T01:50:14.377Z,6.70
2019-03-18T01:52:42.664Z,9.13
2019-03-18T01:55:11.306Z,10.90
2019-03-18T01:57:39.566Z,6.20
2019-03-18T02:00:11.104Z,5.07
2019-03-18T02:02:39.662Z,5.90
2019-03-18T02:05:11.170Z,3.77
2019-03-18T02:07:39.373Z,5.00
2019-03-18T02:10:12.784Z,6.37
2019-03-18T02:12:41.072Z,4.80
2019-03-18T02:15:13.708Z,3.20
2019-03-18T02:17:46.519Z,5.53
2019-03-18T02:20:19.204Z,4.33
2019-03-18T02:22:47.759Z,5.13
2019-03-18T02:25:17.316Z,5.27
2019-03-18T02:27:45.569Z,10.00
2019-03-18T02:30:20.214Z,6.70
2019-03-18T02:32:48.456Z,8.10
2019-03-18T02:35:16.838Z,5.37
2019-03-18T02:37:45.074Z,6.80
2019-03-18T02:40:13.528Z,6.90
2019-03-18T02:42:41.735Z,5.10
2019-03-18T02:45:12.747Z,6.80
2019-03-18T02:47:41.017Z,3.13
2019-03-18T02:50:10.531Z,6.50
2019-03-18T02:52:38.798Z,3.70
2019-03-18T02:55:08.173Z,5.00
2019-03-18T02:57:38.745Z,4.77
2019-03-18T03:00:10.169Z,4.73
2019-03-18T03:02:38.688Z,11.53
2019-03-18T03:05:08.726Z,9.17
2019-03-18T03:07:40.636Z,2.43
2019-03-18T03:10:11.292Z,4.50
2019-03-18T03:12:39.554Z,4.73
2019-03-18T03:15:10.699Z,3.63
2019-03-18T03:17:40.569Z,6.80
2019-03-18T03:20:14.066Z,6.40
2019-03-18T03:22:44.460Z,4.83
2019-03-18T03:25:12.417Z,2.60
2019-03-18T03:27:40.932Z,4.30
2019-03-18T03:30:17.644Z,4.27
2019-03-18T03:32:45.552Z,4.97
2019-03-18T03:35:14.224Z,5.23
2019-03-18T03:37:45.486Z,4.90
2019-03-18T03:40:14.019Z,5.93
2019-03-18T03:42:42.289Z,5.43
2019-03-18T03:45:12.583Z,5.40
2019-03-18T03:47:40.789Z,3.40
2019-03-18T03:50:12.397Z,3.33
2019-03-18T03:52:40.662Z,2.13
2019-03-18T03:55:12.918Z,4.60
2019-03-18T03:57:45.254Z,6.43
2019-03-18T04:00:14.566Z,5.30
2019-03-18T04:02:43.083Z,5.30
2019-03-18T04:05:11.408Z,6.23
2019-03-18T04:07:41.291Z,5.83
2019-03-18T04:10:11.507Z,5.13
2019-03-18T04:12:44.433Z,2.57
2019-03-18T04:15:11.544Z,4.80
2019-03-18T04:17:39.751Z,1.67
2019-03-18T04:20:11.147Z,4.47
2019-03-18T04:22:39.616Z,2.27
2019-03-18T04:25:08.436Z,4.63
2019-03-18T04:27:36.900Z,1.83
2019-03-18T04:30:13.229Z,2.73
2019-03-18T04:32:41.837Z,3.13
2019-03-18T04:35:10.314Z,3.80
2019-03-18T04:37:38.498Z,2.43
2019-03-18T04:40:14.504Z,6.17
2019-03-18T04:42:40.048Z,4.60
2019-03-18T04:45:14.307Z,4.23
2019-03-18T04:47:42.745Z,7.10
2019-03-18T04:50:12.174Z,7.10
2019-03-18T04:52:40.335Z,4.80
2019-03-18T04:55:08.954Z,3.87
2019-03-18T04:57:37.122Z,7.80
2019-03-18T05:00:08.131Z,3.57
2019-03-18T05:02:36.324Z,5.73
2019-03-18T05:05:04.658Z,4.73
2019-03-18T05:07:32.816Z,5.70
2019-03-18T05:10:01.729Z,5.83
2019-03-18T05:12:29.915Z,4.60
2019-03-18T05:14:58.077Z,6.57
2019-03-18T05:17:27.110Z,10.30
2019-03-18T05:19:55.470Z,6.60
2019-03-18T05:22:23.636Z,5.00
2019-03-18T05:24:52.198Z,5.20
2019-03-18T05:27:20.362Z,6.53
2019-03-18T05:29:48.852Z,6.30
2019-03-18T05:32:17.029Z,4.97
2019-03-18T05:34:45.220Z,6.67
2019-03-18T05:37:13.390Z,8.43
2019-03-18T05:39:41.585Z,6.37
2019-03-18T05:42:09.803Z,5.03
2019-03-18T05:44:37.974Z,7.47
2019-03-18T05:47:06.470Z,5.83
2019-03-18T05:49:34.952Z,4.63
2019-03-18T05:52:03.151Z,6.00
2019-03-18T05:54:31.704Z,5.13
2019-03-18T05:56:59.886Z,9.53
2019-03-18T05:59:28.094Z,8.60
2019-03-18T06:01:56.298Z,9.27
2019-03-18T06:04:26.226Z,9.37
2019-03-18T06:06:54.723Z,8.43
2019-03-18T06:09:24.837Z,6.57
2019-03-18T06:11:53.127Z,6.87
2019-03-18T06:14:21.341Z,8.10
2019-03-18T06:16:49.772Z,10.63
2019-03-18T06:19:18.259Z,11.10
2019-03-18T06:24:16.862Z,11.20
2019-03-18T06:26:45.125Z,7.60
2019-03-18T06:29:13.725Z,10.10
2019-03-18T06:31:41.940Z,10.13
2019-03-18T06:34:10.203Z,7.80
2019-03-18T06:36:38.396Z,8.73
2019-03-18T06:39:06.966Z,9.77
2019-03-18T06:41:35.159Z,11.07
2019-03-18T06:44:03.333Z,6.43
2019-03-18T06:46:31.591Z,10.80
2019-03-18T06:49:00.797Z,8.23
2019-03-18T06:51:29.248Z,7.13
2019-03-18T06:54:00.106Z,8.97
2019-03-18T06:56:33.650Z,8.67
2019-03-18T06:59:10.638Z,8.67
2019-03-18T07:01:41.172Z,8.63
2019-03-18T07:05:22.009Z,9.73
2019-03-18T07:06:41.007Z,9.83
2019-03-18T07:09:18.989Z,8.67
2019-03-18T07:12:27.925Z,11.90
2019-03-18T07:14:54.694Z,7.37
2019-03-18T07:17:06.907Z,8.33
2019-03-18T07:19:35.123Z,8.00
2019-03-18T07:22:05.972Z,9.17
2019-03-18T07:24:34.160Z,10.90
2019-03-18T07:27:02.347Z,7.03
2019-03-18T07:29:30.586Z,9.60
2019-03-18T07:31:58.828Z,8.57
2019-03-18T07:34:27.061Z,12.40
2019-03-18T07:36:55.270Z,5.93
2019-03-18T07:39:23.560Z,9.60
2019-03-18T07:41:51.846Z,13.87
2019-03-18T07:44:20.093Z,10.63
2019-03-18T07:46:48.625Z,6.83
2019-03-18T07:49:16.846Z,12.80
2019-03-18T07:51:45.035Z,10.63
2019-03-18T07:54:13.246Z,7.93
2019-03-18T07:56:42.058Z,11.40
2019-03-18T07:59:10.328Z,8.47
2019-03-18T08:01:38.515Z,9.77
2019-03-18T08:04:06.724Z,9.53
2019-03-18T08:06:34.913Z,6.93
2019-03-18T08:09:03.187Z,10.20
2019-03-18T08:11:31.372Z,7.03
2019-03-18T08:13:59.609Z,6.17
2019-03-18T08:16:28.995Z,10.93
2019-03-18T08:18:57.530Z,7.10
2019-03-18T08:21:26.017Z,10.07
2019-03-18T08:23:54.259Z,15.13
2019-03-18T08:26:22.524Z,7.53
2019-03-18T08:28:50.777Z,8.83
2019-03-18T08:31:19.317Z,9.70
2019-03-18T08:33:47.535Z,9.10
2019-03-18T08:36:16.180Z,7.13
2019-03-18T08:38:44.388Z,10.43
2019-03-18T08:41:12.624Z,8.27
2019-03-18T08:43:41.117Z,9.20
2019-03-18T08:46:09.312Z,8.37
2019-03-18T08:48:37.519Z,14.80
2019-03-18T08:51:05.694Z,6.07
2019-03-18T08:53:36.804Z,4.90
2019-03-18T08:56:05.334Z,6.80
2019-03-18T08:58:33.824Z,6.40
2019-03-18T09:01:02.325Z,6.90
2019-03-18T09:03:30.548Z,7.37
2019-03-18T09:06:01.131Z,7.23
2019-03-18T09:08:29.111Z,7.20
2019-03-18T09:10:57.298Z,9.67
2019-03-18T09:13:25.521Z,9.37
2019-03-18T09:15:53.719Z,5.83
2019-03-18T09:18:21.919Z,8.17
2019-03-18T09:20:50.455Z,11.53
2019-03-18T09:23:18.760Z,11.57
2019-03-18T09:25:47.213Z,6.80
2019-03-18T09:28:15.707Z,8.37
2019-03-18T09:30:43.900Z,9.03
2019-03-18T09:33:14.077Z,6.43
2019-03-18T09:35:42.360Z,12.93
2019-03-18T09:38:10.579Z,13.00
2019-03-18T09:40:39.115Z,7.40
2019-03-18T09:43:07.324Z,9.27
2019-03-18T09:45:35.548Z,7.83
2019-03-18T09:48:03.774Z,10.27
2019-03-18T09:50:31.981Z,8.50
2019-03-18T09:53:00.208Z,12.47
2019-03-18T09:55:28.422Z,8.33
2019-03-18T09:57:56.650Z,5.87
2019-03-18T10:00:25.113Z,4.37
2019-03-18T10:02:53.690Z,10.13
2019-03-18T10:05:21.864Z,6.33
2019-03-18T10:07:50.452Z,4.63
2019-03-18T10:10:18.666Z,6.70
2019-03-18T10:12:46.853Z,7.80
2019-03-18T10:15:17.556Z,10.53
2019-03-18T10:17:45.772Z,8.03
2019-03-18T10:20:14.271Z,9.97
2019-03-18T10:22:42.482Z,4.87
2019-03-18T10:25:10.852Z,6.33
2019-03-18T10:27:39.026Z,5.30
2019-03-18T10:30:12.443Z,4.27
2019-03-18T10:32:41.075Z,5.70
2019-03-18T10:35:10.175Z,4.60
2019-03-18T10:37:38.450Z,4.37
2019-03-18T10:40:09.741Z,5.17
2019-03-18T10:42:38.282Z,7.40
2019-03-18T10:45:08.794Z,4.60
2019-03-18T10:47:37.283Z,2.23
2019-03-18T10:50:08.867Z,4.50
2019-03-18T10:52:37.446Z,7.03
2019-03-18T10:55:07.387Z,5.93
2019-03-18T10:57:35.836Z,5.67
2019-03-18T11:00:07.198Z,4.93
2019-03-18T11:02:35.400Z,7.60
2019-03-18T11:05:04.659Z,7.43
2019-03-18T11:07:33.114Z,6.50
2019-03-18T11:10:01.294Z,6.57
2019-03-18T11:12:29.490Z,4.67
2019-03-18T11:14:57.963Z,5.00
2019-03-18T11:17:26.169Z,5.43
2019-03-18T11:19:58.692Z,5.00
2019-03-18T11:22:24.326Z,6.03
2019-03-18T11:24:52.782Z,7.23
2019-03-18T11:27:20.959Z,4.23
2019-03-18T11:29:49.161Z,3.53
2019-03-18T11:32:17.610Z,6.47
2019-03-18T11:34:45.807Z,5.50
2019-03-18T11:37:14.417Z,5.00
2019-03-18T11:39:42.621Z,10.77
2019-03-18T11:42:11.144Z,5.43
2019-03-18T11:44:39.333Z,9.67
2019-03-18T11:47:07.515Z,4.63
2019-03-18T11:49:39.854Z,8.53
2019-03-18T11:52:05.629Z,6.30
2019-03-18T11:54:33.952Z,9.10
2019-03-18T11:57:02.292Z,7.07
2019-03-18T11:59:30.511Z,9.10
2019-03-18T12:01:58.714Z,9.43
2019-03-18T12:04:27.233Z,4.57
2019-03-18T12:06:55.440Z,6.63
2019-03-18T12:09:23.882Z,8.90
2019-03-18T12:11:52.089Z,8.80
2019-03-18T12:14:20.338Z,11.83
2019-03-18T12:16:48.514Z,12.40
2019-03-18T12:19:16.710Z,7.13
2019-03-18T12:21:45.155Z,4.37
2019-03-18T12:24:13.739Z,5.70
2019-03-18T12:26:42.327Z,5.33
2019-03-18T12:29:10.527Z,5.03
2019-03-18T12:31:38.693Z,9.03
2019-03-18T12:34:07.146Z,8.70
2019-03-18T12:36:35.358Z,4.83
2019-03-18T12:39:05.466Z,8.03
2019-03-18T12:41:33.713Z,8.47
2019-03-18T12:44:01.989Z,8.93
2019-03-18T12:46:30.471Z,8.30
2019-03-18T12:48:58.647Z,5.90
2019-03-18T12:51:26.819Z,6.67
2019-03-18T12:53:55.298Z,6.30
2019-03-18T12:56:23.774Z,7.73
2019-03-18T12:58:51.954Z,4.27
2019-03-18T13:01:20.432Z,8.03
2019-03-18T13:03:48.611Z,4.37
2019-03-18T13:06:16.782Z,5.77
2019-03-18T13:08:44.974Z,6.40
2019-03-18T13:11:13.154Z,8.43
2019-03-18T13:13:41.356Z,7.13
2019-03-18T13:16:09.994Z,5.17
2019-03-18T13:18:38.153Z,6.97
2019-03-18T13:21:07.999Z,5.50
2019-03-18T13:23:36.557Z,5.00
2019-03-18T13:26:04.721Z,5.20
2019-03-18T13:28:32.917Z,6.27
2019-03-18T13:31:01.090Z,5.23
2019-03-18T13:33:29.650Z,6.70
2019-03-18T13:35:57.843Z,8.07
2019-03-18T13:38:26.302Z,8.70
2019-03-18T13:40:54.580Z,5.47
2019-03-18T13:43:23.176Z,4.37
2019-03-18T13:45:55.692Z,4.53
2019-03-18T13:48:21.278Z,7.30
2019-03-18T13:50:49.807Z,5.50
2019-03-18T13:53:18.308Z,8.60
2019-03-18T13:55:46.529Z,6.83
2019-03-18T13:58:15.071Z,7.83
2019-03-18T14:00:43.650Z,5.47
2019-03-18T14:03:12.135Z,4.37
2019-03-18T14:05:40.640Z,8.37
2019-03-18T14:08:08.846Z,3.40
2019-03-18T14:10:37.101Z,5.03
2019-03-18T14:13:05.298Z,7.33
2019-03-18T14:15:33.485Z,10.87
2019-03-18T14:18:01.654Z,10.07
2019-03-18T14:20:30.115Z,7.60
2019-03-18T14:22:58.288Z,11.27
2019-03-18T14:25:26.465Z,8.23
2019-03-18T14:27:54.643Z,5.57
2019-03-18T14:30:23.466Z,8.43
2019-03-18T14:32:51.666Z,4.17
2019-03-18T14:35:21.264Z,4.80
2019-03-18T14:37:50.054Z,5.40
2019-03-18T14:40:19.744Z,5.10
2019-03-18T14:42:47.940Z,2.87
2019-03-18T14:45:20.865Z,6.60
2019-03-18T14:47:49.013Z,3.50
2019-03-18T14:50:18.495Z,4.33
2019-03-18T14:52:46.674Z,6.37
2019-03-18T14:55:15.728Z,3.67
2019-03-18T14:57:44.164Z,5.10
2019-03-18T15:00:25.367Z,6.13
2019-03-18T15:02:53.581Z,4.73
2019-03-18T15:05:21.809Z,4.20
2019-03-18T15:07:49.985Z,5.53
2019-03-18T15:10:20.152Z,6.57
2019-03-18T15:12:48.626Z,11.27
2019-03-18T15:15:18.142Z,7.63
2019-03-18T15:17:46.394Z,10.20
2019-03-18T15:20:19.738Z,6.77
2019-03-18T15:22:47.920Z,5.67
2019-03-18T15:25:25.131Z,7.60
2019-03-18T15:27:53.304Z,6.50
2019-03-18T15:30:22.006Z,5.97
2019-03-18T15:32:50.645Z,4.23
2019-03-18T15:35:19.090Z,5.53
2019-03-18T15:37:47.259Z,8.53
2019-03-18T15:40:20.405Z,9.10
2019-03-18T15:42:48.588Z,5.43
2019-03-18T15:45:20.725Z,5.97
2019-03-18T15:47:49.156Z,5.67
2019-03-18T15:50:19.853Z,3.67
2019-03-18T15:52:48.121Z,5.20
2019-03-18T15:55:16.380Z,5.20
2019-03-18T15:57:44.676Z,5.30
2019-03-18T16:00:18.746Z,7.40
2019-03-18T16:02:46.909Z,6.53
2019-03-18T16:05:15.490Z,6.20
2019-03-18T16:07:43.654Z,6.57
2019-03-18T16:10:16.206Z,6.60
2019-03-18T16:12:44.382Z,4.53
2019-03-18T16:15:14.959Z,7.13
2019-03-18T16:17:43.411Z,5.67
2019-03-18T16:20:14.017Z,5.10
2019-03-18T16:22:42.182Z,4.40
2019-03-18T16:25:11.402Z,7.17
2019-03-18T16:27:39.600Z,9.07
2019-03-18T16:30:15.544Z,3.23
2019-03-18T16:32:43.773Z,8.80
2019-03-18T16:35:15.924Z,4.13
2019-03-18T16:37:43.623Z,7.90
2019-03-18T16:40:16.619Z,7.27
2019-03-18T16:42:44.818Z,7.80
2019-03-18T16:45:14.758Z,6.10
2019-03-18T16:47:43.061Z,6.17
2019-03-18T16:50:13.611Z,10.60
2019-03-18T16:52:41.806Z,7.80
2019-03-18T16:55:10.499Z,6.27
2019-03-18T16:57:38.763Z,6.93
2019-03-18T17:00:13.106Z,6.37
2019-03-18T17:02:41.310Z,3.90
2019-03-18T17:05:09.953Z,6.50
2019-03-18T17:07:38.244Z,6.90
2019-03-18T17:10:09.643Z,9.40
2019-03-18T17:12:38.251Z,5.00
2019-03-18T17:15:09.367Z,3.80
2019-03-18T17:17:37.537Z,4.83
2019-03-18T17:20:09.101Z,8.07
2019-03-18T17:22:48.229Z,8.13
2019-03-18T17:25:10.282Z,6.33
2019-03-18T17:27:38.476Z,6.50
2019-03-18T17:30:17.565Z,4.60
2019-03-18T17:32:46.572Z,6.00
2019-03-18T17:35:15.035Z,3.60
2019-03-18T17:37:43.222Z,8.97
2019-03-18T17:40:15.667Z,3.93
2019-03-18T17:42:44.167Z,6.00
2019-03-18T17:45:15.005Z,5.97
2019-03-18T17:47:43.319Z,6.87
2019-03-18T17:50:14.838Z,8.50
2019-03-18T17:52:43.410Z,4.90
2019-03-18T17:55:11.712Z,7.17
2019-03-18T17:57:39.885Z,7.70
2019-03-18T18:00:12.120Z,12.33
2019-03-18T18:02:40.309Z,15.63
2019-03-18T18:05:08.488Z,10.47
2019-03-18T18:07:38.487Z,6.60
2019-03-18T18:10:09.631Z,9.37
2019-03-18T18:12:37.981Z,7.53
2019-03-18T18:15:08.526Z,11.77
2019-03-18T18:17:36.714Z,8.60
2019-03-18T18:20:10.667Z,8.37
2019-03-18T18:22:41.325Z,12.97
2019-03-18T18:25:12.508Z,8.00
2019-03-18T18:27:42.293Z,6.83
2019-03-18T18:30:19.107Z,5.93
2019-03-18T18:32:52.194Z,7.53
2019-03-18T18:56:58.001Z,8.07
2019-03-18T19:29:18.716Z,6.33
2019-03-18T20:38:34.269Z,14.30
2019-03-18T20:41:08.563Z,15.80
2019-03-18T20:43:44.704Z,12.13
2019-03-18T20:54:31.847Z,11.40
2019-03-18T20:57:17.991Z,7.83
2019-03-18T21:02:36.474Z,14.97
2019-03-18T21:05:06.703Z,7.10
2019-03-18T21:07:36.452Z,12.00
2019-03-18T21:10:11.742Z,9.77
2019-03-18T21:12:41.940Z,13.40
2019-03-18T21:15:16.916Z,18.20
2019-03-18T21:17:45.199Z,12.03
2019-03-18T21:20:20.616Z,13.70
2019-03-18T21:22:48.837Z,12.07
2019-03-18T21:25:36.799Z,15.17
2019-03-18T21:43:48.345Z,9.53
2019-03-18T21:46:06.860Z,17.20
2019-03-18T21:51:32.822Z,17.10
2019-03-18T21:54:01.535Z,10.40
2019-03-18T21:56:30.721Z,17.80
2019-03-18T21:58:57.704Z,9.77
2019-03-18T22:01:26.913Z,15.40
2019-03-18T22:03:54.460Z,13.37
2019-03-18T22:06:21.721Z,17.40
2019-03-18T22:08:48.971Z,15.67
2019-03-18T22:11:16.625Z,11.17
2019-03-18T22:13:44.288Z,15.20
2019-03-18T22:16:12.070Z,10.40
2019-03-18T22:18:39.391Z,21.63
2019-03-18T22:21:06.833Z,12.50
2019-03-18T22:23:34.747Z,13.00
2019-03-18T22:26:02.178Z,12.07
2019-03-18T22:28:29.703Z,16.27
2019-03-18T22:30:57.062Z,20.63
2019-03-18T22:33:24.501Z,14.27
2019-03-18T22:35:51.805Z,17.63
2019-03-18T22:38:19.101Z,10.87
2019-03-18T22:40:46.547Z,14.63
2019-03-18T22:43:13.896Z,18.97
2019-03-18T22:45:41.590Z,14.97
2019-03-18T22:48:08.910Z,11.67
2019-03-18T22:50:36.714Z,14.67
2019-03-18T22:53:04.007Z,23.40
2019-03-18T22:55:31.269Z,7.93
2019-03-18T22:57:58.877Z,19.67
2019-03-18T23:00:39.862Z,10.03
2019-03-18T23:03:07.444Z,19.83
2019-03-18T23:05:34.638Z,27.50
2019-03-18T23:08:02.036Z,37.53
2019-03-18T23:10:29.580Z,39.87
2019-03-18T23:12:56.841Z,38.67
2019-03-18T23:15:25.296Z,38.27
2019-03-18T23:17:52.480Z,31.27
2019-03-18T23:20:20.020Z,29.43
2019-03-18T23:22:47.579Z,21.40
2019-03-18T23:25:15.140Z,23.97
2019-03-18T23:27:42.373Z,19.23
2019-03-18T23:30:11.505Z,15.07
2019-03-18T23:32:39.071Z,19.30
2019-03-18T23:35:06.426Z,18.60
2019-03-18T23:37:33.638Z,22.10
2019-03-18T23:40:00.874Z,19.27
2019-03-18T23:42:28.116Z,22.83
2019-03-18T23:44:55.351Z,19.80
2019-03-18T23:47:22.600Z,20.60
2019-03-18T23:49:49.829Z,17.90
2019-03-18T23:52:17.041Z,25.97
2019-03-18T23:54:44.282Z,18.63
2019-03-18T23:57:11.498Z,15.20
2019-03-18T23:59:39.040Z,18.13
